sensor_id;sensor_type;location;lat;lon;timestamp;P1;durP1;ratioP1;P2;durP2;ratioP2
10991;SDS011;5549;47.028;15.514;2022-08-11T00:01:15;1.70;;;1.60;;
10991;SDS011;5549;47.028;15.514;2022-08-11T00:03:49;1.63;;;1.53;;
10991;SDS011;5549;47.028;15.514;2022-08-11T00:06:24;1.23;;;1.23;;
10991;SDS011;5549;47.028;15.514;2022-08-11T00:08:55;1.23;;;1.23;;
10991;SDS011;5549;47.028;15.514;2022-08-11T00:11:33;1.33;;;1.33;;
10991;SDS011;5549;47.028;15.514;2022-08-11T00:14:04;2.17;;;1.90;;
10991;SDS011;5549;47.028;15.514;2022-08-11T00:16:51;1.47;;;1.37;;
10991;SDS011;5549;47.028;15.514;2022-08-11T00:19:24;1.47;;;1.47;;
10991;SDS011;5549;47.028;15.514;2022-08-11T00:21:55;1.50;;;1.40;;
10991;SDS011;5549;47.028;15.514;2022-08-11T00:24:24;1.53;;;1.53;;
10991;SDS011;5549;47.028;15.514;2022-08-11T00:27:06;1.37;;;1.37;;
10991;SDS011;5549;47.028;15.514;2022-08-11T00:29:35;1.20;;;1.20;;
10991;SDS011;5549;47.028;15.514;2022-08-11T00:32:03;1.73;;;1.63;;
10991;SDS011;5549;47.028;15.514;2022-08-11T00:34:41;1.50;;;1.50;;
10991;SDS011;5549;47.028;15.514;2022-08-11T00:37:16;1.57;;;1.47;;
10991;SDS011;5549;47.028;15.514;2022-08-11T00:39:49;1.20;;;1.20;;
10991;SDS011;5549;47.028;15.514;2022-08-11T00:42:22;1.30;;;1.30;;
10991;SDS011;5549;47.028;15.514;2022-08-11T00:45:06;1.50;;;1.40;;
10991;SDS011;5549;47.028;15.514;2022-08-11T00:47:43;1.23;;;1.23;;
10991;SDS011;5549;47.028;15.514;2022-08-11T00:50:28;1.60;;;1.50;;
10991;SDS011;5549;47.028;15.514;2022-08-11T00:56:22;1.60;;;1.60;;
10991;SDS011;5549;47.028;15.514;2022-08-11T00:59:54;4.60;;;1.53;;
10991;SDS011;5549;47.028;15.514;2022-08-11T01:06:01;1.43;;;1.43;;
10991;SDS011;5549;47.028;15.514;2022-08-11T01:12:44;1.60;;;1.60;;
10991;SDS011;5549;47.028;15.514;2022-08-11T01:15:35;1.53;;;1.47;;
10991;SDS011;5549;47.028;15.514;2022-08-11T01:25:32;1.33;;;1.33;;
10991;SDS011;5549;47.028;15.514;2022-08-11T01:31:55;1.50;;;1.50;;
10991;SDS011;5549;47.028;15.514;2022-08-11T01:35:13;1.50;;;1.40;;
10991;SDS011;5549;47.028;15.514;2022-08-11T01:41:58;1.50;;;1.50;;
10991;SDS011;5549;47.028;15.514;2022-08-11T01:45:25;1.50;;;1.50;;
10991;SDS011;5549;47.028;15.514;2022-08-11T01:48:04;3.33;;;1.70;;
10991;SDS011;5549;47.028;15.514;2022-08-11T01:53:44;1.60;;;1.50;;
10991;SDS011;5549;47.028;15.514;2022-08-11T01:56:32;1.50;;;1.50;;
10991;SDS011;5549;47.028;15.514;2022-08-11T01:59:22;1.70;;;1.60;;
10991;SDS011;5549;47.028;15.514;2022-08-11T02:02:03;1.77;;;1.67;;
10991;SDS011;5549;47.028;15.514;2022-08-11T02:05:15;1.97;;;1.83;;
10991;SDS011;5549;47.028;15.514;2022-08-11T02:08:09;1.90;;;1.80;;
10991;SDS011;5549;47.028;15.514;2022-08-11T02:10:50;1.47;;;1.47;;
10991;SDS011;5549;47.028;15.514;2022-08-11T02:13:48;1.73;;;1.63;;
10991;SDS011;5549;47.028;15.514;2022-08-11T02:16:28;1.80;;;1.70;;
10991;SDS011;5549;47.028;15.514;2022-08-11T02:19:17;1.80;;;1.73;;
10991;SDS011;5549;47.028;15.514;2022-08-11T02:22:12;1.63;;;1.63;;
10991;SDS011;5549;47.028;15.514;2022-08-11T02:25:11;3.27;;;1.73;;
10991;SDS011;5549;47.028;15.514;2022-08-11T02:27:52;1.80;;;1.70;;
10991;SDS011;5549;47.028;15.514;2022-08-11T02:30:30;1.70;;;1.60;;
10991;SDS011;5549;47.028;15.514;2022-08-11T02:33:11;1.80;;;1.80;;
10991;SDS011;5549;47.028;15.514;2022-08-11T02:35:50;1.83;;;1.77;;
10991;SDS011;5549;47.028;15.514;2022-08-11T02:38:31;2.20;;;1.80;;
10991;SDS011;5549;47.028;15.514;2022-08-11T02:41:12;1.90;;;1.80;;
10991;SDS011;5549;47.028;15.514;2022-08-11T02:44:23;1.83;;;1.73;;
10991;SDS011;5549;47.028;15.514;2022-08-11T02:47:02;2.70;;;1.90;;
10991;SDS011;5549;47.028;15.514;2022-08-11T02:49:43;1.90;;;1.80;;
10991;SDS011;5549;47.028;15.514;2022-08-11T02:52:24;1.80;;;1.70;;
10991;SDS011;5549;47.028;15.514;2022-08-11T02:55:09;2.27;;;2.17;;
10991;SDS011;5549;47.028;15.514;2022-08-11T02:57:52;2.17;;;1.90;;
10991;SDS011;5549;47.028;15.514;2022-08-11T03:00:27;2.20;;;2.10;;
10991;SDS011;5549;47.028;15.514;2022-08-11T03:03:15;2.57;;;1.93;;
10991;SDS011;5549;47.028;15.514;2022-08-11T03:05:57;2.20;;;2.10;;
10991;SDS011;5549;47.028;15.514;2022-08-11T03:08:45;3.00;;;2.30;;
10991;SDS011;5549;47.028;15.514;2022-08-11T03:11:21;2.07;;;1.87;;
10991;SDS011;5549;47.028;15.514;2022-08-11T03:14:28;3.43;;;2.30;;
10991;SDS011;5549;47.028;15.514;2022-08-11T03:17:24;3.00;;;2.80;;
10991;SDS011;5549;47.028;15.514;2022-08-11T03:22:57;1.90;;;1.80;;
10991;SDS011;5549;47.028;15.514;2022-08-11T03:25:35;2.13;;;2.03;;
10991;SDS011;5549;47.028;15.514;2022-08-11T03:28:20;2.33;;;2.00;;
10991;SDS011;5549;47.028;15.514;2022-08-11T03:31:07;2.27;;;2.13;;
10991;SDS011;5549;47.028;15.514;2022-08-11T03:33:50;2.87;;;2.27;;
10991;SDS011;5549;47.028;15.514;2022-08-11T03:36:37;2.60;;;2.40;;
10991;SDS011;5549;47.028;15.514;2022-08-11T03:39:43;2.00;;;1.90;;
10991;SDS011;5549;47.028;15.514;2022-08-11T03:42:24;2.17;;;2.07;;
10991;SDS011;5549;47.028;15.514;2022-08-11T03:45:02;2.37;;;2.17;;
10991;SDS011;5549;47.028;15.514;2022-08-11T03:47:57;2.37;;;2.17;;
10991;SDS011;5549;47.028;15.514;2022-08-11T03:50:44;2.20;;;2.00;;
10991;SDS011;5549;47.028;15.514;2022-08-11T03:53:29;4.07;;;2.53;;
10991;SDS011;5549;47.028;15.514;2022-08-11T03:56:40;3.13;;;2.50;;
10991;SDS011;5549;47.028;15.514;2022-08-11T04:09:46;2.33;;;2.17;;
10991;SDS011;5549;47.028;15.514;2022-08-11T04:13:08;2.17;;;2.07;;
10991;SDS011;5549;47.028;15.514;2022-08-11T04:16:27;2.10;;;2.00;;
10991;SDS011;5549;47.028;15.514;2022-08-11T04:22:29;2.60;;;2.40;;
10991;SDS011;5549;47.028;15.514;2022-08-11T04:25:25;2.30;;;2.20;;
10991;SDS011;5549;47.028;15.514;2022-08-11T04:28:33;2.37;;;2.23;;
10991;SDS011;5549;47.028;15.514;2022-08-11T04:31:25;2.07;;;1.97;;
10991;SDS011;5549;47.028;15.514;2022-08-11T04:37:19;2.23;;;2.13;;
10991;SDS011;5549;47.028;15.514;2022-08-11T04:40:38;1.93;;;1.90;;
10991;SDS011;5549;47.028;15.514;2022-08-11T04:47:16;1.80;;;1.70;;
10991;SDS011;5549;47.028;15.514;2022-08-11T04:50:21;1.93;;;1.80;;
10991;SDS011;5549;47.028;15.514;2022-08-11T04:53:33;1.80;;;1.70;;
10991;SDS011;5549;47.028;15.514;2022-08-11T04:56:37;1.60;;;1.60;;
10991;SDS011;5549;47.028;15.514;2022-08-11T04:59:39;1.80;;;1.70;;
10991;SDS011;5549;47.028;15.514;2022-08-11T05:06:23;2.57;;;2.07;;
10991;SDS011;5549;47.028;15.514;2022-08-11T05:10:02;2.00;;;1.90;;
10991;SDS011;5549;47.028;15.514;2022-08-11T05:12:47;1.67;;;1.57;;
10991;SDS011;5549;47.028;15.514;2022-08-11T05:15:20;2.10;;;2.00;;
10991;SDS011;5549;47.028;15.514;2022-08-11T05:18:18;1.80;;;1.70;;
10991;SDS011;5549;47.028;15.514;2022-08-11T05:21:10;2.53;;;2.33;;
10991;SDS011;5549;47.028;15.514;2022-08-11T05:24:04;2.10;;;2.00;;
10991;SDS011;5549;47.028;15.514;2022-08-11T05:26:57;1.63;;;1.63;;
10991;SDS011;5549;47.028;15.514;2022-08-11T05:29:52;1.80;;;1.70;;
10991;SDS011;5549;47.028;15.514;2022-08-11T05:32:46;1.93;;;1.83;;
10991;SDS011;5549;47.028;15.514;2022-08-11T05:35:43;1.70;;;1.60;;
10991;SDS011;5549;47.028;15.514;2022-08-11T05:38:15;2.00;;;1.90;;
10991;SDS011;5549;47.028;15.514;2022-08-11T05:41:11;1.90;;;1.80;;
10991;SDS011;5549;47.028;15.514;2022-08-11T05:43:59;2.13;;;2.00;;
10991;SDS011;5549;47.028;15.514;2022-08-11T05:46:47;1.70;;;1.60;;
10991;SDS011;5549;47.028;15.514;2022-08-11T05:49:33;3.47;;;1.97;;
10991;SDS011;5549;47.028;15.514;2022-08-11T05:52:20;1.60;;;1.50;;
10991;SDS011;5549;47.028;15.514;2022-08-11T05:55:09;1.57;;;1.47;;
10991;SDS011;5549;47.028;15.514;2022-08-11T05:57:59;1.23;;;1.23;;
10991;SDS011;5549;47.028;15.514;2022-08-11T06:00:29;2.03;;;1.83;;
10991;SDS011;5549;47.028;15.514;2022-08-11T06:03:06;1.90;;;1.80;;
10991;SDS011;5549;47.028;15.514;2022-08-11T06:05:35;1.73;;;1.67;;
10991;SDS011;5549;47.028;15.514;2022-08-11T06:08:09;1.57;;;1.57;;
10991;SDS011;5549;47.028;15.514;2022-08-11T06:10:42;1.90;;;1.80;;
10991;SDS011;5549;47.028;15.514;2022-08-11T06:13:15;1.90;;;1.40;;
10991;SDS011;5549;47.028;15.514;2022-08-11T06:15:47;1.67;;;1.53;;
10991;SDS011;5549;47.028;15.514;2022-08-11T06:18:19;1.43;;;1.43;;
10991;SDS011;5549;47.028;15.514;2022-08-11T06:20:48;1.43;;;1.43;;
10991;SDS011;5549;47.028;15.514;2022-08-11T06:23:21;1.90;;;1.80;;
10991;SDS011;5549;47.028;15.514;2022-08-11T06:25:51;1.60;;;1.60;;
10991;SDS011;5549;47.028;15.514;2022-08-11T06:28:29;1.73;;;1.63;;
10991;SDS011;5549;47.028;15.514;2022-08-11T06:30:58;1.80;;;1.70;;
10991;SDS011;5549;47.028;15.514;2022-08-11T06:33:32;1.47;;;1.33;;
10991;SDS011;5549;47.028;15.514;2022-08-11T06:36:09;1.50;;;1.40;;
10991;SDS011;5549;47.028;15.514;2022-08-11T06:38:48;2.10;;;1.47;;
10991;SDS011;5549;47.028;15.514;2022-08-11T06:41:32;1.60;;;1.50;;
10991;SDS011;5549;47.028;15.514;2022-08-11T06:44:15;3.03;;;1.20;;
10991;SDS011;5549;47.028;15.514;2022-08-11T06:46:55;1.57;;;1.57;;
10991;SDS011;5549;47.028;15.514;2022-08-11T06:49:34;1.50;;;1.50;;
10991;SDS011;5549;47.028;15.514;2022-08-11T06:52:27;1.53;;;1.50;;
10991;SDS011;5549;47.028;15.514;2022-08-11T06:55:04;1.50;;;1.40;;
10991;SDS011;5549;47.028;15.514;2022-08-11T06:57:37;1.80;;;1.50;;
10991;SDS011;5549;47.028;15.514;2022-08-11T07:00:25;1.30;;;1.30;;
10991;SDS011;5549;47.028;15.514;2022-08-11T07:02:59;1.27;;;1.27;;
10991;SDS011;5549;47.028;15.514;2022-08-11T07:05:38;1.43;;;1.33;;
10991;SDS011;5549;47.028;15.514;2022-08-11T07:11:54;1.13;;;1.10;;
10991;SDS011;5549;47.028;15.514;2022-08-11T07:14:54;1.17;;;1.17;;
10991;SDS011;5549;47.028;15.514;2022-08-11T07:17:43;1.83;;;1.50;;
10991;SDS011;5549;47.028;15.514;2022-08-11T07:20:36;1.43;;;1.43;;
10991;SDS011;5549;47.028;15.514;2022-08-11T07:23:22;1.10;;;1.10;;
10991;SDS011;5549;47.028;15.514;2022-08-11T07:26:08;1.30;;;1.30;;
10991;SDS011;5549;47.028;15.514;2022-08-11T07:28:55;1.27;;;1.27;;
10991;SDS011;5549;47.028;15.514;2022-08-11T07:31:29;1.00;;;1.00;;
10991;SDS011;5549;47.028;15.514;2022-08-11T07:34:08;1.20;;;1.20;;
10991;SDS011;5549;47.028;15.514;2022-08-11T07:36:46;1.00;;;1.00;;
10991;SDS011;5549;47.028;15.514;2022-08-11T07:39:20;1.00;;;1.00;;
10991;SDS011;5549;47.028;15.514;2022-08-11T07:41:53;2.17;;;1.40;;
10991;SDS011;5549;47.028;15.514;2022-08-11T07:44:23;1.10;;;1.10;;
10991;SDS011;5549;47.028;15.514;2022-08-11T07:46:56;1.10;;;1.10;;
10991;SDS011;5549;47.028;15.514;2022-08-11T07:49:45;1.93;;;1.23;;
10991;SDS011;5549;47.028;15.514;2022-08-11T07:52:37;1.50;;;1.40;;
10991;SDS011;5549;47.028;15.514;2022-08-11T07:55:05;1.20;;;1.20;;
10991;SDS011;5549;47.028;15.514;2022-08-11T07:57:39;1.10;;;1.10;;
10991;SDS011;5549;47.028;15.514;2022-08-11T08:00:30;1.23;;;1.17;;
10991;SDS011;5549;47.028;15.514;2022-08-11T08:03:23;1.10;;;1.10;;
10991;SDS011;5549;47.028;15.514;2022-08-11T08:06:10;1.10;;;1.10;;
10991;SDS011;5549;47.028;15.514;2022-08-11T08:08:58;1.10;;;1.10;;
10991;SDS011;5549;47.028;15.514;2022-08-11T08:11:43;1.10;;;1.10;;
10991;SDS011;5549;47.028;15.514;2022-08-11T08:14:30;2.40;;;1.37;;
10991;SDS011;5549;47.028;15.514;2022-08-11T08:17:19;1.13;;;1.13;;
10991;SDS011;5549;47.028;15.514;2022-08-11T08:20:05;1.30;;;1.20;;
10991;SDS011;5549;47.028;15.514;2022-08-11T08:22:40;1.10;;;1.10;;
10991;SDS011;5549;47.028;15.514;2022-08-11T08:25:09;1.47;;;1.43;;
10991;SDS011;5549;47.028;15.514;2022-08-11T08:27:39;1.40;;;1.40;;
10991;SDS011;5549;47.028;15.514;2022-08-11T08:30:08;1.10;;;1.10;;
10991;SDS011;5549;47.028;15.514;2022-08-11T08:32:57;1.40;;;1.40;;
10991;SDS011;5549;47.028;15.514;2022-08-11T08:35:25;1.27;;;1.27;;
10991;SDS011;5549;47.028;15.514;2022-08-11T08:37:56;1.03;;;1.03;;
10991;SDS011;5549;47.028;15.514;2022-08-11T08:40:24;1.47;;;1.30;;
10991;SDS011;5549;47.028;15.514;2022-08-11T08:42:54;1.73;;;1.30;;
10991;SDS011;5549;47.028;15.514;2022-08-11T08:45:25;1.20;;;1.20;;
10991;SDS011;5549;47.028;15.514;2022-08-11T08:47:57;1.40;;;1.40;;
10991;SDS011;5549;47.028;15.514;2022-08-11T08:50:31;1.30;;;1.20;;
10991;SDS011;5549;47.028;15.514;2022-08-11T08:53:22;1.43;;;1.40;;
10991;SDS011;5549;47.028;15.514;2022-08-11T08:55:54;1.83;;;1.23;;
10991;SDS011;5549;47.028;15.514;2022-08-11T08:58:23;1.50;;;1.50;;
10991;SDS011;5549;47.028;15.514;2022-08-11T09:00:55;1.20;;;1.20;;
10991;SDS011;5549;47.028;15.514;2022-08-11T09:03:29;1.13;;;1.13;;
10991;SDS011;5549;47.028;15.514;2022-08-11T09:06:05;1.40;;;1.37;;
10991;SDS011;5549;47.028;15.514;2022-08-11T09:08:35;1.43;;;1.33;;
10991;SDS011;5549;47.028;15.514;2022-08-11T09:11:07;1.27;;;1.27;;
10991;SDS011;5549;47.028;15.514;2022-08-11T09:13:59;1.23;;;1.23;;
10991;SDS011;5549;47.028;15.514;2022-08-11T09:16:29;1.80;;;1.47;;
10991;SDS011;5549;47.028;15.514;2022-08-11T09:18:57;1.00;;;1.00;;
10991;SDS011;5549;47.028;15.514;2022-08-11T09:21:29;1.40;;;1.40;;
10991;SDS011;5549;47.028;15.514;2022-08-11T09:24:00;1.20;;;1.20;;
10991;SDS011;5549;47.028;15.514;2022-08-11T09:26:48;1.83;;;1.33;;
10991;SDS011;5549;47.028;15.514;2022-08-11T09:29:30;1.20;;;1.20;;
10991;SDS011;5549;47.028;15.514;2022-08-11T09:31:58;1.40;;;1.23;;
10991;SDS011;5549;47.028;15.514;2022-08-11T09:34:28;1.63;;;1.30;;
10991;SDS011;5549;47.028;15.514;2022-08-11T09:37:00;1.60;;;1.50;;
10991;SDS011;5549;47.028;15.514;2022-08-11T09:39:50;1.33;;;1.33;;
10991;SDS011;5549;47.028;15.514;2022-08-11T09:42:39;1.37;;;1.37;;
10991;SDS011;5549;47.028;15.514;2022-08-11T09:45:25;1.53;;;1.27;;
10991;SDS011;5549;47.028;15.514;2022-08-11T09:47:55;1.03;;;1.03;;
10991;SDS011;5549;47.028;15.514;2022-08-11T09:50:31;1.20;;;1.20;;
10991;SDS011;5549;47.028;15.514;2022-08-11T09:53:05;1.60;;;1.50;;
10991;SDS011;5549;47.028;15.514;2022-08-11T09:55:34;1.27;;;1.20;;
10991;SDS011;5549;47.028;15.514;2022-08-11T09:58:02;1.90;;;1.43;;
10991;SDS011;5549;47.028;15.514;2022-08-11T10:00:41;1.20;;;1.20;;
10991;SDS011;5549;47.028;15.514;2022-08-11T10:03:14;1.00;;;1.00;;
10991;SDS011;5549;47.028;15.514;2022-08-11T10:05:50;1.20;;;1.20;;
10991;SDS011;5549;47.028;15.514;2022-08-11T10:08:40;1.60;;;1.47;;
10991;SDS011;5549;47.028;15.514;2022-08-11T10:11:13;1.23;;;1.23;;
10991;SDS011;5549;47.028;15.514;2022-08-11T10:13:45;0.93;;;0.93;;
10991;SDS011;5549;47.028;15.514;2022-08-11T10:16:38;1.50;;;1.40;;
10991;SDS011;5549;47.028;15.514;2022-08-11T10:19:09;1.20;;;1.20;;
10991;SDS011;5549;47.028;15.514;2022-08-11T10:21:37;1.93;;;1.40;;
10991;SDS011;5549;47.028;15.514;2022-08-11T10:24:09;1.20;;;1.20;;
10991;SDS011;5549;47.028;15.514;2022-08-11T10:26:57;1.60;;;1.50;;
10991;SDS011;5549;47.028;15.514;2022-08-11T10:29:30;2.10;;;1.30;;
10991;SDS011;5549;47.028;15.514;2022-08-11T10:32:22;1.40;;;1.30;;
10991;SDS011;5549;47.028;15.514;2022-08-11T10:35:09;1.30;;;1.20;;
10991;SDS011;5549;47.028;15.514;2022-08-11T10:37:41;1.50;;;1.43;;
10991;SDS011;5549;47.028;15.514;2022-08-11T10:40:15;1.30;;;1.30;;
10991;SDS011;5549;47.028;15.514;2022-08-11T10:42:49;1.10;;;1.10;;
10991;SDS011;5549;47.028;15.514;2022-08-11T10:45:32;1.20;;;1.20;;
10991;SDS011;5549;47.028;15.514;2022-08-11T10:48:23;1.30;;;1.23;;
10991;SDS011;5549;47.028;15.514;2022-08-11T10:50:53;1.50;;;1.50;;
10991;SDS011;5549;47.028;15.514;2022-08-11T10:53:43;1.27;;;1.27;;
10991;SDS011;5549;47.028;15.514;2022-08-11T10:56:35;1.20;;;1.20;;
10991;SDS011;5549;47.028;15.514;2022-08-11T10:59:25;3.03;;;1.10;;
10991;SDS011;5549;47.028;15.514;2022-08-11T11:01:55;1.07;;;1.07;;
10991;SDS011;5549;47.028;15.514;2022-08-11T11:04:26;1.07;;;1.07;;
10991;SDS011;5549;47.028;15.514;2022-08-11T11:07:06;1.00;;;1.00;;
10991;SDS011;5549;47.028;15.514;2022-08-11T11:09:43;1.33;;;1.23;;
10991;SDS011;5549;47.028;15.514;2022-08-11T11:12:18;1.53;;;1.43;;
10991;SDS011;5549;47.028;15.514;2022-08-11T11:15:09;1.80;;;1.60;;
10991;SDS011;5549;47.028;15.514;2022-08-11T11:17:56;1.40;;;1.40;;
10991;SDS011;5549;47.028;15.514;2022-08-11T11:20:34;1.40;;;1.30;;
10991;SDS011;5549;47.028;15.514;2022-08-11T11:23:11;1.47;;;1.37;;
10991;SDS011;5549;47.028;15.514;2022-08-11T11:26:22;1.53;;;1.10;;
10991;SDS011;5549;47.028;15.514;2022-08-11T11:32:23;2.30;;;1.63;;
10991;SDS011;5549;47.028;15.514;2022-08-11T11:35:11;1.33;;;1.33;;
10991;SDS011;5549;47.028;15.514;2022-08-11T11:38:01;1.93;;;1.50;;
10991;SDS011;5549;47.028;15.514;2022-08-11T11:40:36;1.13;;;1.13;;
10991;SDS011;5549;47.028;15.514;2022-08-11T11:43:06;1.50;;;1.50;;
10991;SDS011;5549;47.028;15.514;2022-08-11T11:45:34;1.17;;;1.17;;
10991;SDS011;5549;47.028;15.514;2022-08-11T11:48:06;1.37;;;1.37;;
10991;SDS011;5549;47.028;15.514;2022-08-11T11:50:37;1.40;;;1.40;;
10991;SDS011;5549;47.028;15.514;2022-08-11T11:53:08;1.27;;;1.27;;
10991;SDS011;5549;47.028;15.514;2022-08-11T11:55:38;1.20;;;1.20;;
10991;SDS011;5549;47.028;15.514;2022-08-11T11:58:07;1.33;;;1.23;;
10991;SDS011;5549;47.028;15.514;2022-08-11T12:00:52;1.37;;;1.37;;
10991;SDS011;5549;47.028;15.514;2022-08-11T12:03:40;1.57;;;1.47;;
10991;SDS011;5549;47.028;15.514;2022-08-11T12:06:09;1.20;;;1.20;;
10991;SDS011;5549;47.028;15.514;2022-08-11T12:08:41;1.70;;;1.60;;
10991;SDS011;5549;47.028;15.514;2022-08-11T12:11:12;1.20;;;1.20;;
10991;SDS011;5549;47.028;15.514;2022-08-11T12:14:02;1.30;;;1.30;;
10991;SDS011;5549;47.028;15.514;2022-08-11T12:16:33;1.30;;;1.30;;
10991;SDS011;5549;47.028;15.514;2022-08-11T12:19:07;1.27;;;1.27;;
10991;SDS011;5549;47.028;15.514;2022-08-11T12:21:41;1.13;;;1.13;;
10991;SDS011;5549;47.028;15.514;2022-08-11T12:24:23;1.33;;;1.27;;
10991;SDS011;5549;47.028;15.514;2022-08-11T12:27:11;1.50;;;1.40;;
10991;SDS011;5549;47.028;15.514;2022-08-11T12:29:50;1.37;;;1.27;;
10991;SDS011;5549;47.028;15.514;2022-08-11T12:32:24;1.10;;;1.10;;
10991;SDS011;5549;47.028;15.514;2022-08-11T12:34:59;1.30;;;1.30;;
10991;SDS011;5549;47.028;15.514;2022-08-11T12:37:29;1.17;;;1.17;;
10991;SDS011;5549;47.028;15.514;2022-08-11T12:40:02;2.03;;;1.40;;
10991;SDS011;5549;47.028;15.514;2022-08-11T12:42:54;1.17;;;1.17;;
10991;SDS011;5549;47.028;15.514;2022-08-11T12:45:45;1.30;;;1.30;;
10991;SDS011;5549;47.028;15.514;2022-08-11T12:48:14;1.40;;;1.40;;
10991;SDS011;5549;47.028;15.514;2022-08-11T12:51:08;3.60;;;1.30;;
10991;SDS011;5549;47.028;15.514;2022-08-11T12:53:54;1.20;;;1.20;;
10991;SDS011;5549;47.028;15.514;2022-08-11T12:56:27;1.50;;;1.40;;
10991;SDS011;5549;47.028;15.514;2022-08-11T12:59:21;1.40;;;1.40;;
10991;SDS011;5549;47.028;15.514;2022-08-11T13:02:11;1.10;;;1.10;;
10991;SDS011;5549;47.028;15.514;2022-08-11T13:05:00;1.70;;;1.47;;
10991;SDS011;5549;47.028;15.514;2022-08-11T13:07:32;1.00;;;1.00;;
10991;SDS011;5549;47.028;15.514;2022-08-11T13:10:05;1.10;;;1.10;;
10991;SDS011;5549;47.028;15.514;2022-08-11T13:12:36;1.40;;;1.40;;
10991;SDS011;5549;47.028;15.514;2022-08-11T13:15:16;1.40;;;1.40;;
10991;SDS011;5549;47.028;15.514;2022-08-11T13:17:49;1.23;;;1.23;;
10991;SDS011;5549;47.028;15.514;2022-08-11T13:20:20;1.43;;;1.43;;
10991;SDS011;5549;47.028;15.514;2022-08-11T13:22:52;1.43;;;1.33;;
10991;SDS011;5549;47.028;15.514;2022-08-11T13:25:25;1.10;;;1.10;;
10991;SDS011;5549;47.028;15.514;2022-08-11T13:27:58;1.30;;;1.30;;
10991;SDS011;5549;47.028;15.514;2022-08-11T13:30:30;1.10;;;1.10;;
10991;SDS011;5549;47.028;15.514;2022-08-11T13:33:18;2.00;;;1.27;;
10991;SDS011;5549;47.028;15.514;2022-08-11T13:35:49;1.37;;;1.37;;
10991;SDS011;5549;47.028;15.514;2022-08-11T13:38:22;1.30;;;1.30;;
10991;SDS011;5549;47.028;15.514;2022-08-11T13:40:51;1.37;;;1.37;;
10991;SDS011;5549;47.028;15.514;2022-08-11T13:43:21;1.30;;;1.30;;
10991;SDS011;5549;47.028;15.514;2022-08-11T13:45:50;1.20;;;1.20;;
10991;SDS011;5549;47.028;15.514;2022-08-11T13:48:42;1.40;;;1.30;;
10991;SDS011;5549;47.028;15.514;2022-08-11T13:51:12;1.30;;;1.30;;
10991;SDS011;5549;47.028;15.514;2022-08-11T13:54:00;1.50;;;1.37;;
10991;SDS011;5549;47.028;15.514;2022-08-11T13:56:30;1.00;;;1.00;;
10991;SDS011;5549;47.028;15.514;2022-08-11T13:59:00;1.27;;;1.27;;
10991;SDS011;5549;47.028;15.514;2022-08-11T14:01:32;1.10;;;1.10;;
10991;SDS011;5549;47.028;15.514;2022-08-11T14:04:05;1.67;;;1.50;;
10991;SDS011;5549;47.028;15.514;2022-08-11T14:06:43;1.23;;;1.23;;
10991;SDS011;5549;47.028;15.514;2022-08-11T14:09:18;1.27;;;1.27;;
10991;SDS011;5549;47.028;15.514;2022-08-11T14:11:55;1.17;;;1.17;;
10991;SDS011;5549;47.028;15.514;2022-08-11T14:14:54;1.17;;;1.17;;
10991;SDS011;5549;47.028;15.514;2022-08-11T14:17:27;1.30;;;1.30;;
10991;SDS011;5549;47.028;15.514;2022-08-11T14:20:00;1.33;;;1.33;;
10991;SDS011;5549;47.028;15.514;2022-08-11T14:22:33;1.30;;;1.30;;
10991;SDS011;5549;47.028;15.514;2022-08-11T14:25:08;1.27;;;1.27;;
10991;SDS011;5549;47.028;15.514;2022-08-11T14:27:39;1.30;;;1.30;;
10991;SDS011;5549;47.028;15.514;2022-08-11T14:30:09;1.40;;;1.30;;
10991;SDS011;5549;47.028;15.514;2022-08-11T14:32:59;1.20;;;1.20;;
10991;SDS011;5549;47.028;15.514;2022-08-11T14:35:27;1.33;;;1.30;;
10991;SDS011;5549;47.028;15.514;2022-08-11T14:37:55;1.40;;;1.30;;
10991;SDS011;5549;47.028;15.514;2022-08-11T14:40:26;1.40;;;1.40;;
10991;SDS011;5549;47.028;15.514;2022-08-11T14:43:12;1.50;;;1.40;;
10991;SDS011;5549;47.028;15.514;2022-08-11T14:45:57;1.23;;;1.20;;
10991;SDS011;5549;47.028;15.514;2022-08-11T14:48:43;1.20;;;1.20;;
10991;SDS011;5549;47.028;15.514;2022-08-11T14:51:13;1.27;;;1.27;;
10991;SDS011;5549;47.028;15.514;2022-08-11T14:53:44;1.20;;;1.20;;
10991;SDS011;5549;47.028;15.514;2022-08-11T14:56:16;1.50;;;1.40;;
10991;SDS011;5549;47.028;15.514;2022-08-11T14:59:03;1.27;;;1.27;;
10991;SDS011;5549;47.028;15.514;2022-08-11T15:01:32;2.47;;;1.30;;
10991;SDS011;5549;47.028;15.514;2022-08-11T15:04:20;1.40;;;1.40;;
10991;SDS011;5549;47.028;15.514;2022-08-11T15:06:55;1.20;;;1.20;;
10991;SDS011;5549;47.028;15.514;2022-08-11T15:09:25;1.20;;;1.20;;
10991;SDS011;5549;47.028;15.514;2022-08-11T15:11:55;1.10;;;1.10;;
10991;SDS011;5549;47.028;15.514;2022-08-11T15:14:41;1.20;;;1.20;;
10991;SDS011;5549;47.028;15.514;2022-08-11T15:17:28;1.10;;;1.10;;
10991;SDS011;5549;47.028;15.514;2022-08-11T15:20:01;1.20;;;1.20;;
10991;SDS011;5549;47.028;15.514;2022-08-11T15:22:50;1.10;;;1.10;;
10991;SDS011;5549;47.028;15.514;2022-08-11T15:25:35;1.00;;;0.90;;
10991;SDS011;5549;47.028;15.514;2022-08-11T15:28:06;1.40;;;1.40;;
10991;SDS011;5549;47.028;15.514;2022-08-11T15:30:55;1.17;;;1.10;;
10991;SDS011;5549;47.028;15.514;2022-08-11T15:33:43;1.20;;;1.20;;
10991;SDS011;5549;47.028;15.514;2022-08-11T15:36:35;1.30;;;1.30;;
10991;SDS011;5549;47.028;15.514;2022-08-11T15:39:21;1.53;;;1.43;;
10991;SDS011;5549;47.028;15.514;2022-08-11T15:41:57;1.10;;;1.00;;
10991;SDS011;5549;47.028;15.514;2022-08-11T15:44:50;2.13;;;1.20;;
10991;SDS011;5549;47.028;15.514;2022-08-11T15:47:54;1.27;;;1.27;;
10991;SDS011;5549;47.028;15.514;2022-08-11T15:50:25;1.20;;;1.20;;
10991;SDS011;5549;47.028;15.514;2022-08-11T15:52:59;1.10;;;1.10;;
10991;SDS011;5549;47.028;15.514;2022-08-11T15:55:36;1.30;;;1.30;;
10991;SDS011;5549;47.028;15.514;2022-08-11T15:58:06;1.23;;;1.20;;
10991;SDS011;5549;47.028;15.514;2022-08-11T16:00:56;1.07;;;1.07;;
10991;SDS011;5549;47.028;15.514;2022-08-11T16:03:44;1.40;;;1.40;;
10991;SDS011;5549;47.028;15.514;2022-08-11T16:06:39;1.20;;;1.20;;
10991;SDS011;5549;47.028;15.514;2022-08-11T16:09:27;1.30;;;1.20;;
10991;SDS011;5549;47.028;15.514;2022-08-11T16:12:01;1.60;;;1.50;;
10991;SDS011;5549;47.028;15.514;2022-08-11T16:14:33;1.40;;;1.40;;
10991;SDS011;5549;47.028;15.514;2022-08-11T16:17:26;1.27;;;1.27;;
10991;SDS011;5549;47.028;15.514;2022-08-11T16:19:59;1.20;;;1.10;;
10991;SDS011;5549;47.028;15.514;2022-08-11T16:22:32;1.70;;;1.60;;
10991;SDS011;5549;47.028;15.514;2022-08-11T16:25:04;1.00;;;1.00;;
10991;SDS011;5549;47.028;15.514;2022-08-11T16:27:38;1.10;;;1.10;;
10991;SDS011;5549;47.028;15.514;2022-08-11T16:30:09;1.13;;;1.13;;
10991;SDS011;5549;47.028;15.514;2022-08-11T16:32:42;1.30;;;1.30;;
10991;SDS011;5549;47.028;15.514;2022-08-11T16:35:17;1.30;;;1.20;;
10991;SDS011;5549;47.028;15.514;2022-08-11T16:38:06;1.20;;;1.20;;
10991;SDS011;5549;47.028;15.514;2022-08-11T16:40:53;1.40;;;1.30;;
10991;SDS011;5549;47.028;15.514;2022-08-11T16:43:27;1.10;;;1.10;;
10991;SDS011;5549;47.028;15.514;2022-08-11T16:46:15;1.00;;;1.00;;
10991;SDS011;5549;47.028;15.514;2022-08-11T16:49:05;1.10;;;1.10;;
10991;SDS011;5549;47.028;15.514;2022-08-11T16:51:42;1.10;;;1.10;;
10991;SDS011;5549;47.028;15.514;2022-08-11T16:54:13;1.00;;;1.00;;
10991;SDS011;5549;47.028;15.514;2022-08-11T16:56:41;1.30;;;1.30;;
10991;SDS011;5549;47.028;15.514;2022-08-11T16:59:16;1.20;;;1.20;;
10991;SDS011;5549;47.028;15.514;2022-08-11T17:01:50;1.20;;;1.20;;
10991;SDS011;5549;47.028;15.514;2022-08-11T17:04:31;1.33;;;1.30;;
10991;SDS011;5549;47.028;15.514;2022-08-11T17:07:23;1.10;;;1.10;;
10991;SDS011;5549;47.028;15.514;2022-08-11T17:10:15;1.30;;;1.20;;
10991;SDS011;5549;47.028;15.514;2022-08-11T17:13:07;1.33;;;1.30;;
10991;SDS011;5549;47.028;15.514;2022-08-11T17:15:39;1.13;;;1.03;;